createdAt,value
2022-08-24T00:01:22.731Z,100783.78
2022-08-24T00:03:54.196Z,100782.16
2022-08-24T00:06:26.225Z,100783.25
2022-08-24T00:08:55.573Z,100783.31
2022-08-24T00:11:23.783Z,100784.13
2022-08-24T00:13:51.682Z,100780.09
2022-08-24T00:16:20.747Z,100788.78
2022-08-24T00:18:49.539Z,100789.88
2022-08-24T00:21:18.968Z,100788.56
2022-08-24T00:23:49.816Z,100786.13
2022-08-24T00:26:19.391Z,100787.81
2022-08-24T00:28:57.870Z,100784.59
2022-08-24T00:31:26.219Z,100781.38
2022-08-24T00:33:54.435Z,100788.97
2022-08-24T00:36:22.645Z,100771.69
2022-08-24T00:38:52.118Z,100780.38
2022-08-24T00:41:20.000Z,100781.50
2022-08-24T00:43:55.926Z,100778.78
2022-08-24T00:46:27.691Z,100769.63
2022-08-24T00:49:04.381Z,100767.19
2022-08-24T00:51:37.152Z,100766.69
2022-08-24T00:54:11.812Z,100774.00
2022-08-24T00:56:43.798Z,100769.16
2022-08-24T00:59:14.986Z,100768.94
2022-08-24T01:01:43.997Z,100764.88
2022-08-24T01:04:19.554Z,100766.78
2022-08-24T01:06:49.895Z,100767.59
2022-08-24T01:09:19.415Z,100770.59
2022-08-24T01:11:47.518Z,100774.66
2022-08-24T01:14:15.402Z,100767.16
2022-08-24T01:17:00.598Z,100763.91
2022-08-24T01:19:36.607Z,100769.31
2022-08-24T01:22:17.282Z,100770.69
2022-08-24T01:24:47.475Z,100767.75
2022-08-24T01:27:17.525Z,100772.09
2022-08-24T01:29:49.107Z,100774.28
2022-08-24T01:32:27.877Z,100770.78
2022-08-24T01:34:56.762Z,100769.75
2022-08-24T01:37:25.307Z,100780.84
2022-08-24T01:39:57.529Z,100777.31
2022-08-24T01:42:29.857Z,100772.47
2022-08-24T01:44:58.271Z,100771.13
2022-08-24T01:47:26.120Z,100766.03
2022-08-24T01:49:54.032Z,100776.59
2022-08-24T01:52:25.009Z,100776.06
2022-08-24T01:54:54.529Z,100771.75
2022-08-24T01:57:26.473Z,100776.34
2022-08-24T01:59:55.054Z,100776.09
2022-08-24T02:02:28.743Z,100776.91
2022-08-24T02:04:56.705Z,100772.06
2022-08-24T02:07:25.013Z,100786.94
2022-08-24T02:09:54.544Z,100783.44
2022-08-24T02:12:23.046Z,100783.19
2022-08-24T02:14:51.762Z,100774.56
2022-08-24T02:17:22.060Z,100778.34
2022-08-24T02:19:49.915Z,100766.22
2022-08-24T02:22:17.946Z,100777.31
2022-08-24T02:24:45.774Z,100775.69
2022-08-24T02:27:16.984Z,100772.47
2022-08-24T02:29:45.505Z,100777.88
2022-08-24T02:32:13.836Z,100782.97
2022-08-24T02:34:43.384Z,100765.50
2022-08-24T02:37:11.238Z,100779.50
2022-08-24T02:39:39.090Z,100774.41
2022-08-24T02:42:07.585Z,100777.38
2022-08-24T02:44:36.787Z,100774.13
2022-08-24T02:47:04.865Z,100778.72
2022-08-24T02:49:33.033Z,100777.94
2022-08-24T02:52:00.904Z,100777.41
2022-08-24T02:54:28.943Z,100776.88
2022-08-24T02:56:56.757Z,100769.88
2022-08-24T02:59:24.978Z,100774.75
2022-08-24T03:01:54.559Z,100776.91
2022-08-24T03:04:22.554Z,100783.38
2022-08-24T03:06:51.591Z,100782.88
2022-08-24T03:09:19.848Z,100778.81
2022-08-24T03:11:51.995Z,100779.09
2022-08-24T03:14:19.917Z,100776.41
2022-08-24T03:16:47.734Z,100772.38
2022-08-24T03:19:17.218Z,100768.06
2022-08-24T03:21:45.055Z,100772.13
2022-08-24T03:24:13.098Z,100764.28
2022-08-24T03:26:44.315Z,100765.66
2022-08-24T03:29:12.365Z,100765.94
2022-08-24T03:31:40.237Z,100759.22
2022-08-24T03:34:08.416Z,100762.19
2022-08-24T03:36:37.583Z,100755.44
2022-08-24T03:39:05.546Z,100762.75
2022-08-24T03:41:33.802Z,100759.53
2022-08-24T03:44:05.235Z,100757.09
2022-08-24T03:46:37.404Z,100757.09
2022-08-24T03:49:08.186Z,100754.16
2022-08-24T03:51:38.830Z,100754.16
2022-08-24T03:54:09.604Z,100752.81
2022-08-24T03:56:37.553Z,100759.28
2022-08-24T03:59:05.809Z,100763.63
2022-08-24T04:01:33.667Z,100757.69
2022-08-24T04:04:01.887Z,100759.84
2022-08-24T04:06:30.401Z,100761.22
2022-08-24T04:08:59.653Z,100763.13
2022-08-24T04:11:30.461Z,100762.56
2022-08-24T04:13:59.416Z,100765.50
2022-08-24T04:16:29.478Z,100763.91
2022-08-24T04:18:58.377Z,100765.25
2022-08-24T04:21:28.549Z,100770.63
2022-08-24T04:23:57.529Z,100770.94
2022-08-24T04:26:44.866Z,100764.47
2022-08-24T04:29:16.844Z,100766.63
2022-08-24T04:31:45.293Z,100767.97
2022-08-24T04:34:15.028Z,100766.88
2022-08-24T04:36:43.890Z,100778.75
2022-08-24T04:39:12.122Z,100779.03
2022-08-24T04:41:42.929Z,100766.34
2022-08-24T04:44:11.373Z,100770.69
2022-08-24T04:46:40.716Z,100776.88
2022-08-24T04:49:08.560Z,100775.25
2022-08-24T04:51:36.938Z,100775.53
2022-08-24T04:54:05.630Z,100771.25
2022-08-24T04:56:33.861Z,100773.38
2022-08-24T04:59:03.859Z,100778.78
2022-08-24T05:01:32.962Z,100784.72
2022-08-24T05:04:01.187Z,100776.66
2022-08-24T05:06:32.401Z,100790.94
2022-08-24T05:09:01.714Z,100781.19
2022-08-24T05:11:30.001Z,100791.19
2022-08-24T05:13:58.623Z,100786.88
2022-08-24T05:16:30.714Z,100792.81
2022-08-24T05:19:00.631Z,100799.53
2022-08-24T05:21:30.881Z,100796.84
2022-08-24T05:23:58.799Z,100786.38
2022-08-24T05:26:28.546Z,100794.97
2022-08-24T05:28:57.879Z,100791.47
2022-08-24T05:31:29.445Z,100800.06
2022-08-24T05:33:57.980Z,100803.06
2022-08-24T05:36:30.516Z,100797.66
2022-08-24T05:39:01.555Z,100793.88
2022-08-24T05:41:30.011Z,100796.56
2022-08-24T05:43:59.821Z,100800.91
2022-08-24T05:46:31.874Z,100801.72
2022-08-24T05:49:01.256Z,100798.72
2022-08-24T05:51:29.938Z,100805.72
2022-08-24T05:53:59.229Z,100805.44
2022-08-24T05:56:31.793Z,100801.41
2022-08-24T05:59:00.172Z,100803.28
2022-08-24T06:01:29.778Z,100797.88
2022-08-24T06:03:58.838Z,100797.88
2022-08-24T06:06:28.010Z,100804.59
2022-08-24T06:08:57.588Z,100797.56
2022-08-24T06:11:30.215Z,100804.28
2022-08-24T06:14:01.097Z,100808.84
2022-08-24T06:16:30.498Z,100802.59
2022-08-24T06:18:58.707Z,100802.78
2022-08-24T06:21:28.737Z,100805.44
2022-08-24T06:23:57.258Z,100815.38
2022-08-24T06:26:43.094Z,100809.72
2022-08-24T06:29:13.242Z,100808.59
2022-08-24T06:31:46.798Z,100806.91
2022-08-24T06:34:17.898Z,100814.44
2022-08-24T06:36:46.358Z,100813.38
2022-08-24T06:39:15.003Z,100816.03
2022-08-24T06:41:44.197Z,100824.66
2022-08-24T06:44:12.377Z,100824.09
2022-08-24T06:46:40.549Z,100821.91
2022-08-24T06:49:09.871Z,100822.97
2022-08-24T06:51:37.677Z,100825.06
2022-08-24T06:54:06.853Z,100824.53
2022-08-24T06:56:36.745Z,100822.06
2022-08-24T06:59:04.981Z,100822.28
2022-08-24T07:01:33.169Z,100816.34
2022-08-24T07:04:00.991Z,100815.78
2022-08-24T07:06:30.167Z,100823.31
2022-08-24T07:08:58.084Z,100825.16
2022-08-24T07:11:26.093Z,100824.06
2022-08-24T07:13:53.854Z,100820.25
2022-08-24T07:16:22.499Z,100819.91
2022-08-24T07:18:51.347Z,100825.75
2022-08-24T07:21:19.979Z,100820.03
2022-08-24T07:23:49.928Z,100829.69
2022-08-24T07:26:22.328Z,100831.25
2022-08-24T07:28:51.511Z,100835.25
2022-08-24T07:31:21.212Z,100831.09
2022-08-24T07:33:49.712Z,100826.72
2022-08-24T07:36:22.435Z,100836.66
2022-08-24T07:38:53.530Z,100841.66
2022-08-24T07:44:11.282Z,100846.59
2022-08-24T07:46:40.122Z,100848.94
2022-08-24T07:49:28.042Z,100845.38
2022-08-24T07:51:57.179Z,100840.69
2022-08-24T07:54:27.572Z,100838.22
2022-08-24T07:56:55.685Z,100838.94
2022-08-24T07:59:23.790Z,100841.84
2022-08-24T08:01:52.951Z,100843.69
2022-08-24T08:04:25.317Z,100848.25
2022-08-24T08:06:53.496Z,100848.19
2022-08-24T08:09:21.858Z,100843.50
2022-08-24T08:11:51.184Z,100852.06
2022-08-24T08:14:19.042Z,100851.19
2022-08-24T08:16:47.086Z,100851.69
2022-08-24T08:19:14.917Z,100855.44
2022-08-24T08:22:02.136Z,100841.88
2022-08-24T08:24:31.321Z,100857.75
2022-08-24T08:27:00.797Z,100862.59
2022-08-24T08:29:32.063Z,100866.59
2022-08-24T08:32:00.503Z,100860.59
2022-08-24T08:34:28.805Z,100862.22
2022-08-24T08:36:56.780Z,100860.81
2022-08-24T08:39:25.831Z,100858.41
2022-08-24T08:42:30.269Z,100860.44
2022-08-24T08:45:08.913Z,100864.19
2022-08-24T08:48:05.224Z,100868.50
2022-08-24T08:50:39.858Z,100859.25
2022-08-24T08:53:41.867Z,100854.88
2022-08-24T08:56:20.824Z,100858.91
2022-08-24T08:59:04.237Z,100866.66
2022-08-24T09:01:46.508Z,100861.16
2022-08-24T09:04:47.341Z,100863.19
2022-08-24T09:07:28.080Z,100867.91
2022-08-24T09:10:21.849Z,100870.44
2022-08-24T09:13:04.251Z,100872.16
2022-08-24T09:15:57.648Z,100862.75
2022-08-24T09:18:41.471Z,100864.66
2022-08-24T09:21:35.308Z,100867.38
2022-08-24T09:24:20.837Z,100867.88
2022-08-24T09:26:53.320Z,100867.53
2022-08-24T09:29:45.727Z,100864.72
2022-08-24T09:32:35.608Z,100864.66
2022-08-24T09:35:05.601Z,100864.59
2022-08-24T09:37:57.672Z,100871.91
2022-08-24T09:40:38.034Z,100867.53
2022-08-24T09:43:37.889Z,100853.88
2022-08-24T09:46:41.367Z,100865.47
2022-08-24T09:49:39.554Z,100856.19
2022-08-24T09:52:36.249Z,100860.09
2022-08-24T09:55:36.529Z,100860.38
2022-08-24T09:58:19.781Z,100855.44
2022-08-24T10:00:52.245Z,100864.78
2022-08-24T10:03:37.884Z,100862.06
2022-08-24T10:06:18.115Z,100846.88
2022-08-24T10:09:02.984Z,100844.28
2022-08-24T10:11:40.471Z,100844.00
2022-08-24T10:14:17.683Z,100836.47
2022-08-24T10:16:56.309Z,100844.97
2022-08-24T10:19:41.296Z,100837.16
2022-08-24T10:22:20.921Z,100828.97
2022-08-24T10:25:04.243Z,100827.72
2022-08-24T10:27:46.602Z,100827.06
2022-08-24T10:30:42.230Z,100826.75
2022-08-24T10:33:18.873Z,100819.38
2022-08-24T10:36:23.547Z,100817.44
2022-08-24T10:39:15.124Z,100816.69
2022-08-24T10:42:33.613Z,100812.81
2022-08-24T10:45:08.297Z,100809.41
2022-08-24T10:47:37.636Z,100816.78
2022-08-24T10:50:32.372Z,100805.81
2022-08-24T10:53:25.420Z,100803.53
2022-08-24T10:56:17.533Z,100804.34
2022-08-24T10:58:52.065Z,100804.66
2022-08-24T11:01:27.756Z,100798.84
2022-08-24T11:04:04.417Z,100805.06
2022-08-24T11:06:34.713Z,100803.97
2022-08-24T11:09:09.483Z,100796.72
2022-08-24T11:11:40.416Z,100792.22
2022-08-24T11:14:24.449Z,100794.78
2022-08-24T11:16:57.548Z,100790.75
2022-08-24T11:19:35.034Z,100794.25
2022-08-24T11:22:05.673Z,100798.06
2022-08-24T11:24:43.242Z,100786.25
2022-08-24T11:27:30.943Z,100782.63
2022-08-24T11:30:03.930Z,100783.88
2022-08-24T11:32:38.791Z,100776.22
2022-08-24T11:35:15.955Z,100775.50
2022-08-24T11:37:45.518Z,100774.53
2022-08-24T11:40:16.530Z,100764.41
2022-08-24T11:43:06.096Z,100765.19
2022-08-24T11:45:42.799Z,100753.41
2022-08-24T11:48:27.255Z,100761.06
2022-08-24T11:51:04.854Z,100762.16
2022-08-24T11:56:21.613Z,100758.59
2022-08-24T11:59:02.685Z,100750.31
2022-08-24T12:01:43.557Z,100749.81
2022-08-24T12:04:30.362Z,100751.41
2022-08-24T12:07:03.978Z,100742.84
2022-08-24T12:09:48.071Z,100745.94
2022-08-24T12:12:23.176Z,100748.47
2022-08-24T12:15:00.507Z,100743.94
2022-08-24T12:17:38.165Z,100742.13
2022-08-24T12:20:16.440Z,100739.16
2022-08-24T12:22:44.927Z,100743.97
2022-08-24T12:25:28.390Z,100729.81
2022-08-24T12:27:58.512Z,100737.34
2022-08-24T12:30:28.743Z,100732.34
2022-08-24T12:33:01.913Z,100727.56
2022-08-24T12:35:33.496Z,100734.28
2022-08-24T12:38:09.145Z,100727.34
2022-08-24T12:40:41.674Z,100725.41
2022-08-24T12:43:14.872Z,100725.66
2022-08-24T12:45:43.316Z,100724.50
2022-08-24T12:48:20.038Z,100728.22
2022-08-24T12:51:04.123Z,100722.88
2022-08-24T12:54:04.792Z,100724.59
2022-08-24T12:56:57.451Z,100721.53
2022-08-24T12:59:29.450Z,100715.69
2022-08-24T13:02:03.132Z,100714.31
2022-08-24T13:04:44.571Z,100718.22
2022-08-24T13:07:27.838Z,100717.63
2022-08-24T13:10:09.104Z,100710.78
2022-08-24T13:13:13.698Z,100701.53
2022-08-24T13:16:01.078Z,100700.22
2022-08-24T13:19:09.211Z,100701.66
2022-08-24T13:21:45.565Z,100695.19
2022-08-24T13:24:52.917Z,100689.72
2022-08-24T13:28:03.779Z,100685.59
2022-08-24T13:30:38.864Z,100684.25
2022-08-24T13:33:13.180Z,100695.47
2022-08-24T13:36:07.382Z,100687.03
2022-08-24T13:39:04.771Z,100681.19
2022-08-24T13:41:47.878Z,100683.25
2022-08-24T13:44:25.633Z,100674.56
2022-08-24T13:47:04.225Z,100678.81
2022-08-24T13:50:01.856Z,100677.53
2022-08-24T13:52:40.467Z,100671.75
2022-08-24T13:55:29.785Z,100672.66
2022-08-24T13:58:12.266Z,100666.72
2022-08-24T14:00:45.391Z,100672.06
2022-08-24T14:03:54.016Z,100674.94
2022-08-24T14:06:33.203Z,100671.41
2022-08-24T14:09:19.385Z,100674.59
2022-08-24T14:12:07.573Z,100672.66
2022-08-24T14:15:06.812Z,100667.19
2022-08-24T14:17:55.027Z,100665.72
2022-08-24T14:20:51.206Z,100668.88
2022-08-24T14:23:28.576Z,100661.47
2022-08-24T14:26:29.699Z,100668.88
2022-08-24T14:29:46.582Z,100667.75
2022-08-24T14:32:50.345Z,100657.81
2022-08-24T14:35:33.332Z,100649.28
2022-08-24T14:38:22.909Z,100655.88
2022-08-24T14:41:08.634Z,100655.56
2022-08-24T14:44:04.014Z,100659.44
2022-08-24T14:46:39.255Z,100647.56
2022-08-24T14:49:16.382Z,100645.63
2022-08-24T14:52:04.365Z,100641.97
2022-08-24T14:54:42.585Z,100644.25
2022-08-24T14:57:39.531Z,100645.72
2022-08-24T15:00:14.851Z,100646.84
2022-08-24T15:03:09.547Z,100641.75
2022-08-24T15:05:42.907Z,100636.59
2022-08-24T15:08:16.309Z,100645.50
2022-08-24T15:10:57.425Z,100631.34
2022-08-24T15:13:29.778Z,100639.56
2022-08-24T15:16:04.658Z,100631.25
2022-08-24T15:18:41.143Z,100632.72
2022-08-24T15:21:30.490Z,100631.34
2022-08-24T15:24:10.201Z,100628.50
2022-08-24T15:26:51.271Z,100622.91
2022-08-24T15:29:22.464Z,100630.22
2022-08-24T15:32:01.560Z,100635.69
2022-08-24T15:34:45.525Z,100632.47
2022-08-24T15:37:16.110Z,100631.22
2022-08-24T15:39:44.875Z,100625.75
2022-08-24T15:42:15.521Z,100625.28
2022-08-24T15:44:46.545Z,100626.06
2022-08-24T15:47:22.478Z,100631.22
2022-08-24T15:49:55.604Z,100628.81
2022-08-24T15:52:46.310Z,100623.47
2022-08-24T15:55:29.056Z,100624.25
2022-08-24T15:57:58.094Z,100619.59
2022-08-24T16:00:55.293Z,100619.28
2022-08-24T16:03:28.960Z,100618.34
2022-08-24T16:06:17.164Z,100624.97
2022-08-24T16:08:57.613Z,100616.84
2022-08-24T16:11:33.503Z,100616.53
2022-08-24T16:14:02.424Z,100624.03
2022-08-24T16:16:38.474Z,100623.69
2022-08-24T16:19:18.601Z,100617.91
2022-08-24T16:21:55.000Z,100616.75
2022-08-24T16:24:31.245Z,100616.75
2022-08-24T16:27:04.237Z,100619.94
2022-08-24T16:29:55.877Z,100617.69
2022-08-24T16:32:32.365Z,100619.28
2022-08-24T16:35:20.628Z,100614.72
2022-08-24T16:37:49.018Z,100613.13
2022-08-24T16:40:16.963Z,100613.13
2022-08-24T16:42:44.811Z,100611.50
2022-08-24T16:45:17.314Z,100611.50
2022-08-24T16:47:46.852Z,100606.03
2022-08-24T16:50:19.145Z,100601.28
2022-08-24T16:52:47.493Z,100608.09
2022-08-24T16:55:15.305Z,100598.63
2022-08-24T16:57:44.214Z,100608.78
2022-08-24T17:00:17.136Z,100610.59
2022-08-24T17:02:46.217Z,100610.81
2022-08-24T17:05:14.244Z,100606.72
2022-08-24T17:07:44.944Z,100612.84
2022-08-24T17:10:15.861Z,100610.31
2022-08-24T17:12:43.678Z,100610.88
2022-08-24T17:15:16.253Z,100617.34
2022-08-24T17:17:56.139Z,100610.16
2022-08-24T17:20:24.340Z,100618.91
2022-08-24T17:22:53.517Z,100621.06
2022-08-24T17:25:21.362Z,100619.34
2022-08-24T17:27:49.374Z,100612.94
2022-08-24T17:30:18.526Z,100622.94
2022-08-24T17:32:48.076Z,100621.22
2022-08-24T17:35:16.057Z,100620.28
2022-08-24T17:37:44.515Z,100616.94
2022-08-24T17:40:17.151Z,100624.69
2022-08-24T17:42:51.334Z,100626.03
2022-08-24T17:45:23.006Z,100625.09
2022-08-24T17:47:52.436Z,100624.16
2022-08-24T17:50:23.628Z,100628.22
2022-08-24T17:52:57.121Z,100627.28
2022-08-24T17:55:30.105Z,100630.88
2022-08-24T17:57:59.109Z,100637.81
2022-08-24T18:00:26.892Z,100631.75
2022-08-24T18:02:54.758Z,100641.38
2022-08-24T18:05:22.530Z,100640.44
2022-08-24T18:07:54.698Z,100641.88
2022-08-24T18:10:26.153Z,100641.44
2022-08-24T18:12:55.974Z,100635.69
2022-08-24T18:15:35.550Z,100640.34
2022-08-24T18:18:08.643Z,100652.72
2022-08-24T18:20:39.210Z,100652.56
2022-08-24T18:23:11.602Z,100654.03
2022-08-24T18:25:44.988Z,100654.69
2022-08-24T18:28:16.106Z,100652.63
2022-08-24T18:30:44.949Z,100654.41
2022-08-24T18:33:12.988Z,100649.63
2022-08-24T18:35:40.921Z,100653.31
2022-08-24T18:38:08.718Z,100655.44
2022-08-24T18:40:36.948Z,100661.53
2022-08-24T18:43:05.448Z,100655.94
2022-08-24T18:45:35.662Z,100660.13
2022-08-24T18:48:04.142Z,100661.41
2022-08-24T18:50:33.330Z,100653.88
2022-08-24T18:53:02.156Z,100663.81
2022-08-24T18:55:30.837Z,100657.41
2022-08-24T18:57:58.633Z,100654.88
2022-08-24T19:00:26.616Z,100659.38
2022-08-24T19:02:59.156Z,100661.16
2022-08-24T19:05:27.322Z,100665.97
2022-08-24T19:07:55.798Z,100659.56
2022-08-24T19:10:26.090Z,100660.53
2022-08-24T19:12:57.476Z,100655.91
2022-08-24T19:15:35.887Z,100666.34
2022-08-24T19:18:11.242Z,100671.28
2022-08-24T19:20:44.726Z,100671.44
2022-08-24T19:23:21.607Z,100665.50
2022-08-24T19:25:49.993Z,100672.25
2022-08-24T19:28:18.754Z,100679.47
2022-08-24T19:30:47.048Z,100676.91
2022-08-24T19:33:24.265Z,100676.44
2022-08-24T19:35:53.420Z,100680.41
2022-08-24T19:38:25.871Z,100675.63
2022-08-24T19:40:55.546Z,100680.91
2022-08-24T19:43:26.176Z,100683.44
2022-08-24T19:46:05.724Z,100678.66
2022-08-24T19:48:40.253Z,100680.88
2022-08-24T19:51:11.711Z,100680.25
2022-08-24T19:53:39.770Z,100673.03
2022-08-24T19:56:08.837Z,100671.59
2022-08-24T19:58:45.515Z,100668.38
2022-08-24T20:01:18.337Z,100673.97
2022-08-24T20:03:48.107Z,100674.13
2022-08-24T20:06:17.456Z,100670.41
2022-08-24T20:08:48.512Z,100680.31
2022-08-24T20:11:17.238Z,100668.94
2022-08-24T20:13:45.467Z,100678.69
2022-08-24T20:16:17.051Z,100676.94
2022-08-24T20:18:45.930Z,100670.66
2022-08-24T20:21:15.895Z,100674.69
2022-08-24T20:23:45.424Z,100677.03
2022-08-24T20:26:14.310Z,100679.09
2022-08-24T20:28:46.272Z,100670.47
2022-08-24T20:31:14.822Z,100680.94
2022-08-24T20:33:44.125Z,100683.19
2022-08-24T20:36:25.600Z,100678.06
2022-08-24T20:38:56.592Z,100683.94
2022-08-24T20:41:26.780Z,100687.63
2022-08-24T20:43:55.008Z,100683.59
2022-08-24T20:46:23.118Z,100687.75
2022-08-24T20:48:55.610Z,100677.50
2022-08-24T20:51:25.565Z,100678.91
2022-08-24T20:53:53.929Z,100678.25
2022-08-24T20:56:31.200Z,100676.66
2022-08-24T20:59:00.180Z,100673.75
2022-08-24T21:01:28.220Z,100668.94
2022-08-24T21:03:58.459Z,100669.56
2022-08-24T21:06:30.899Z,100669.09
2022-08-24T21:08:58.739Z,100670.81
2022-08-24T21:11:26.783Z,100669.81
2022-08-24T21:13:54.596Z,100675.88
2022-08-24T21:16:22.543Z,100674.59
2022-08-24T21:18:50.794Z,100675.47
2022-08-24T21:21:18.793Z,100676.09
2022-08-24T21:23:47.976Z,100668.06
2022-08-24T21:26:20.206Z,100680.38
2022-08-24T21:28:49.902Z,100683.19
2022-08-24T21:31:18.171Z,100681.88
2022-08-24T21:34:03.396Z,100675.50
2022-08-24T21:36:32.247Z,100682.00
2022-08-24T21:39:01.458Z,100678.81
2022-08-24T21:41:29.525Z,100678.94
2022-08-24T21:43:57.891Z,100685.47
2022-08-24T21:46:30.849Z,100677.63
2022-08-24T21:48:58.976Z,100679.66
2022-08-24T21:51:26.806Z,100677.56
2022-08-24T21:53:57.446Z,100676.56
2022-08-24T21:56:31.636Z,100683.13
2022-08-24T21:59:00.249Z,100685.44
2022-08-24T22:01:28.899Z,100686.88
2022-08-24T22:03:58.217Z,100690.16
2022-08-24T22:06:31.051Z,100689.94
2022-08-24T22:08:59.590Z,100687.84
2022-08-24T22:11:30.164Z,100690.06
2022-08-24T22:13:58.245Z,100688.56
2022-08-24T22:16:26.748Z,100683.75
2022-08-24T22:18:55.445Z,100685.97
2022-08-24T22:21:27.874Z,100675.72
2022-08-24T22:23:56.893Z,100669.31
2022-08-24T22:26:26.194Z,100675.31
2022-08-24T22:28:56.709Z,100672.13
2022-08-24T22:31:27.522Z,100665.38
2022-08-24T22:33:56.201Z,100659.78
2022-08-24T22:36:25.410Z,100660.88
2022-08-24T22:38:54.981Z,100656.88
2022-08-24T22:41:23.465Z,100656.66
2022-08-24T22:44:09.136Z,100654.56
2022-08-24T22:46:39.327Z,100662.09
2022-08-24T22:49:08.983Z,100646.44
2022-08-24T22:51:38.242Z,100652.44
2022-08-24T22:54:06.498Z,100654.16
2022-08-24T22:56:38.987Z,100656.97
2022-08-24T22:59:08.749Z,100660.78
2022-08-24T23:01:40.447Z,100658.63
2022-08-24T23:04:11.627Z,100659.75
2022-08-24T23:06:40.891Z,100668.47
2022-08-24T23:09:09.940Z,100662.56
2022-08-24T23:11:38.272Z,100656.66
2022-08-24T23:14:09.342Z,100657.25
2022-08-24T23:16:40.273Z,100657.25
2022-08-24T23:19:26.782Z,100651.91
2022-08-24T23:21:55.547Z,100644.38
2022-08-24T23:24:23.762Z,100649.81
2022-08-24T23:26:52.793Z,100647.72
2022-08-24T23:29:21.712Z,100637.44
2022-08-24T23:31:50.983Z,100642.38
2022-08-24T23:34:19.115Z,100644.56
2022-08-24T23:36:47.053Z,100645.19
2022-08-24T23:39:15.082Z,100639.56
2022-08-24T23:41:46.130Z,100639.88
2022-08-24T23:44:17.619Z,100633.91
2022-08-24T23:46:46.935Z,100626.19
2022-08-24T23:49:18.356Z,100634.03
2022-08-24T23:51:46.984Z,100624.38
2022-08-24T23:54:14.998Z,100636.31
2022-08-24T23:56:46.190Z,100625.00
2022-08-24T23:59:20.138Z,100622.28
